Hauptseite
METAR-TAF:

METAR-TAF

Flughäfen :

Tschita, Russland

Flughafen Kadala

Breite: 52-05N, Länge: 113-29E, Höhe: 685 m

Beobachtung

Neuester Wetterbericht von vor 30 Minuten, um 16:00 UTC
Wind 4 kt aus Nord
Temperatur -18°C
Luftfeuchtigkeit 71%
Luftdruck 1021 hPa
Sichtweite 10 km oder mehr
Aufgelockert bewölkt in der Höhe von 4300 ft, Kumulonimbus.

METAR: UIAA 181600Z 36002MPS 9999 SCT043CB M18/M22 Q1021 R29/450060 NOSIG RMK QFE707/0942

Zeit: 01:30 (16:30 UTC)

Prognose

Neuester Wetterbericht von vor 2 Stunden und 30 Minuten, um 14:00 UTC
Gültige Prognose vom 18 um 15 UTC bis 19 um 15 UTC
Wind 6 kt aus Südwest
Sichtweite: 3100 m
Durchbrochene Bewölkung in der Höhe von 2000 ft, Kumulonimbus.
Schneeschauer

TAF: UIAA 181400Z 1815/1915 23003MPS 3100 -SHSN BKN020CB

Wetterbeobachtungen und Prognosen von mehr als 4000 Flughäfen (METAR und TAF Bericht).

Die verfügbaren Stationen werden durch gelbe und rote Markierungen auf der Karte dargestellt.

Führen Sie die Maus auf sie, um den Namen der Station zu sehen.

Darauf klicken, um die Beobachtung von Wetterbeobachtungen und Prognosen zu sehen.

Um die Karte zu ändern : klicken Sie auf den grünen Tasten mit einem schwarzen Kreuz Zum Vergrößern, auf den grünen Button mit einem Gedankenstrich zu verkleinern, oder auf die grünen Pfeile für benachbarte Karten.


METAR-TAF: